createdAt,value
2022-10-09T00:01:32.599Z,82.27
2022-10-09T00:04:01.033Z,82.25
2022-10-09T00:06:35.266Z,81.73
2022-10-09T00:09:04.881Z,82.29
2022-10-09T00:11:34.587Z,82.33
2022-10-09T00:14:03.688Z,82.95
2022-10-09T00:16:31.845Z,82.45
2022-10-09T00:19:00.734Z,82.87
2022-10-09T00:21:33.473Z,82.12
2022-10-09T00:24:05.884Z,83.00
2022-10-09T00:26:33.801Z,82.84
2022-10-09T00:29:02.298Z,82.06
2022-10-09T00:31:31.647Z,81.34
2022-10-09T00:34:00.526Z,81.81
2022-10-09T00:36:28.537Z,81.75
2022-10-09T00:38:58.118Z,81.67
2022-10-09T00:41:31.193Z,82.25
2022-10-09T00:44:02.268Z,82.50
2022-10-09T00:46:42.526Z,82.66
2022-10-09T00:49:28.814Z,81.42
2022-10-09T00:52:02.066Z,81.84
2022-10-09T00:54:35.973Z,83.69
2022-10-09T00:57:04.122Z,84.67
2022-10-09T00:59:32.759Z,84.80
2022-10-09T01:02:00.808Z,84.20
2022-10-09T01:04:28.734Z,83.68
2022-10-09T01:07:13.555Z,84.14
2022-10-09T01:09:54.943Z,84.05
2022-10-09T01:12:36.902Z,85.28
2022-10-09T01:15:17.425Z,84.88
2022-10-09T01:18:00.077Z,83.39
2022-10-09T01:20:44.025Z,83.50
2022-10-09T01:23:50.144Z,83.03
2022-10-09T01:26:36.604Z,83.66
2022-10-09T01:29:11.201Z,83.60
2022-10-09T01:31:45.165Z,84.44
2022-10-09T01:34:17.577Z,85.21
2022-10-09T01:36:47.103Z,85.53
2022-10-09T01:39:20.032Z,84.89
2022-10-09T01:41:51.845Z,84.55
2022-10-09T01:44:27.048Z,84.22
2022-10-09T01:46:55.757Z,85.16
2022-10-09T01:49:42.220Z,85.99
2022-10-09T01:52:41.312Z,85.37
2022-10-09T01:55:27.613Z,85.13
2022-10-09T01:58:05.913Z,84.00
2022-10-09T02:00:42.101Z,83.56
2022-10-09T02:03:15.305Z,82.73
2022-10-09T02:05:47.716Z,83.13
2022-10-09T02:08:20.845Z,83.78
2022-10-09T02:10:56.156Z,83.77
2022-10-09T02:13:25.702Z,82.88
2022-10-09T02:16:03.430Z,83.31
2022-10-09T02:18:39.767Z,82.67
2022-10-09T02:21:15.196Z,83.22
2022-10-09T02:23:48.366Z,83.68
2022-10-09T02:26:17.182Z,83.19
2022-10-09T02:28:46.199Z,82.50
2022-10-09T02:31:24.696Z,83.12
2022-10-09T02:33:58.465Z,83.06
2022-10-09T02:36:28.216Z,83.41
2022-10-09T02:38:58.648Z,84.12
2022-10-09T02:41:27.432Z,84.18
2022-10-09T02:43:55.608Z,83.45
2022-10-09T02:46:25.677Z,83.81
2022-10-09T02:48:54.345Z,85.95
2022-10-09T02:51:30.322Z,86.73
2022-10-09T02:54:01.956Z,86.71
2022-10-09T02:56:30.386Z,84.71
2022-10-09T02:58:58.388Z,85.15
2022-10-09T03:01:28.162Z,84.91
2022-10-09T03:03:56.104Z,85.25
2022-10-09T03:06:26.748Z,85.41
2022-10-09T03:08:56.595Z,85.42
2022-10-09T03:11:27.162Z,84.38
2022-10-09T03:13:55.611Z,86.20
2022-10-09T03:16:26.929Z,86.24
2022-10-09T03:18:56.244Z,85.01
2022-10-09T03:21:26.765Z,84.96
2022-10-09T03:23:56.552Z,84.08
2022-10-09T03:26:27.272Z,84.09
2022-10-09T03:28:56.786Z,84.26
2022-10-09T03:31:52.414Z,85.03
2022-10-09T03:34:16.934Z,87.52
2022-10-09T03:36:44.802Z,86.68
2022-10-09T03:39:12.752Z,84.98
2022-10-09T03:41:40.923Z,85.98
2022-10-09T03:44:08.816Z,86.18
2022-10-09T03:46:36.789Z,85.95
2022-10-09T03:49:06.104Z,85.40
2022-10-09T03:51:35.643Z,84.85
2022-10-09T03:54:06.505Z,84.23
2022-10-09T03:56:34.294Z,83.15
2022-10-09T03:59:05.433Z,83.21
2022-10-09T04:01:33.613Z,84.41
2022-10-09T04:04:01.582Z,84.44
2022-10-09T04:06:29.529Z,83.93
2022-10-09T04:08:58.721Z,84.30
2022-10-09T04:11:26.923Z,84.88
2022-10-09T04:13:54.803Z,85.55
2022-10-09T04:16:22.708Z,85.01
2022-10-09T04:18:50.894Z,83.17
2022-10-09T04:21:18.740Z,83.14
2022-10-09T04:23:47.153Z,84.32
2022-10-09T04:26:16.264Z,83.87
2022-10-09T04:28:44.865Z,83.92
2022-10-09T04:31:12.779Z,84.60
2022-10-09T04:33:41.680Z,84.20
2022-10-09T04:36:09.548Z,84.25
2022-10-09T04:38:37.348Z,82.82
2022-10-09T04:41:07.688Z,83.00
2022-10-09T04:43:36.969Z,83.50
2022-10-09T04:46:06.836Z,83.02
2022-10-09T04:48:38.986Z,83.93
2022-10-09T04:51:08.077Z,84.99
2022-10-09T04:53:37.814Z,84.42
2022-10-09T04:56:10.933Z,84.32
2022-10-09T04:58:41.186Z,84.58
2022-10-09T05:01:13.101Z,85.19
2022-10-09T05:03:41.123Z,84.35
2022-10-09T05:06:12.451Z,84.54
2022-10-09T05:08:42.394Z,84.88
2022-10-09T05:11:14.803Z,84.62
2022-10-09T05:13:52.481Z,84.09
2022-10-09T05:16:23.490Z,83.78
2022-10-09T05:18:54.785Z,83.65
2022-10-09T05:21:24.406Z,83.42
2022-10-09T05:23:54.663Z,83.62
2022-10-09T05:26:26.921Z,83.71
2022-10-09T05:28:56.251Z,84.28
2022-10-09T05:31:27.448Z,86.28
2022-10-09T05:33:58.489Z,88.45
2022-10-09T05:36:26.394Z,88.52
2022-10-09T05:38:55.659Z,88.34
2022-10-09T05:41:23.961Z,86.94
2022-10-09T05:43:51.812Z,87.03
2022-10-09T05:46:24.275Z,86.50
2022-10-09T05:48:55.336Z,85.19
2022-10-09T05:51:26.662Z,85.51
2022-10-09T05:53:55.543Z,86.04
2022-10-09T05:56:26.105Z,85.93
2022-10-09T05:58:56.991Z,86.39
2022-10-09T06:01:30.373Z,87.20
2022-10-09T06:04:00.425Z,86.96
2022-10-09T06:06:31.366Z,87.23
2022-10-09T06:08:59.805Z,87.37
2022-10-09T06:11:31.727Z,88.18
2022-10-09T06:14:01.868Z,88.21
2022-10-09T06:16:33.903Z,89.17
2022-10-09T06:19:03.290Z,90.87
2022-10-09T06:21:31.701Z,91.30
2022-10-09T06:24:03.032Z,91.34
2022-10-09T06:26:31.634Z,91.71
2022-10-09T06:29:02.941Z,91.38
2022-10-09T06:31:33.653Z,91.31
2022-10-09T06:34:03.363Z,90.92
2022-10-09T06:36:35.066Z,89.50
2022-10-09T06:39:08.989Z,88.62
2022-10-09T06:41:37.018Z,87.55
2022-10-09T06:44:19.034Z,88.07
2022-10-09T06:46:49.883Z,88.82
2022-10-09T06:49:17.811Z,88.74
2022-10-09T06:51:46.818Z,89.08
2022-10-09T06:54:17.615Z,89.46
2022-10-09T06:56:45.570Z,90.63
2022-10-09T06:59:14.571Z,90.79
2022-10-09T07:01:42.606Z,90.49
2022-10-09T07:04:14.490Z,91.05
2022-10-09T07:06:46.657Z,90.51
2022-10-09T07:09:16.366Z,90.43
2022-10-09T07:11:49.167Z,89.82
2022-10-09T07:14:18.159Z,89.81
2022-10-09T07:16:49.002Z,88.72
2022-10-09T07:19:18.995Z,89.11
2022-10-09T07:21:50.382Z,87.64
2022-10-09T07:24:21.434Z,87.05
2022-10-09T07:26:49.440Z,86.30
2022-10-09T07:29:19.393Z,86.14
2022-10-09T07:31:47.964Z,87.16
2022-10-09T07:34:16.307Z,86.39
2022-10-09T07:36:47.991Z,85.51
2022-10-09T07:39:19.182Z,85.66
2022-10-09T07:41:52.060Z,83.51
2022-10-09T07:44:20.238Z,83.42
2022-10-09T07:46:51.702Z,82.83
2022-10-09T07:49:20.899Z,81.26
2022-10-09T07:51:50.543Z,81.80
2022-10-09T07:54:18.472Z,81.02
2022-10-09T07:56:46.494Z,80.15
2022-10-09T07:59:16.715Z,79.78
2022-10-09T08:01:44.700Z,78.24
2022-10-09T08:04:12.718Z,78.48
2022-10-09T08:06:40.596Z,76.94
2022-10-09T08:09:10.070Z,77.28
2022-10-09T08:11:40.629Z,74.84
2022-10-09T08:14:15.395Z,74.85
2022-10-09T08:16:47.470Z,71.62
2022-10-09T08:19:15.715Z,71.55
2022-10-09T08:21:43.711Z,67.74
2022-10-09T08:24:13.119Z,68.98
2022-10-09T08:26:41.005Z,67.15
2022-10-09T08:29:14.023Z,65.66
2022-10-09T08:31:42.150Z,64.78
2022-10-09T08:34:11.474Z,63.71
2022-10-09T08:36:39.828Z,63.23
2022-10-09T08:39:07.848Z,63.46
2022-10-09T08:41:48.280Z,63.63
2022-10-09T08:44:22.348Z,62.41
2022-10-09T08:47:05.153Z,62.36
2022-10-09T08:49:47.094Z,60.26
2022-10-09T08:52:28.135Z,60.63
2022-10-09T08:55:06.612Z,60.53
2022-10-09T08:57:36.151Z,61.03
2022-10-09T09:00:14.545Z,59.67
2022-10-09T09:03:05.423Z,62.28
2022-10-09T09:05:44.504Z,61.03
2022-10-09T09:08:32.052Z,61.50
2022-10-09T09:11:21.583Z,61.99
2022-10-09T09:14:11.412Z,63.07
2022-10-09T09:16:53.360Z,62.07
2022-10-09T09:19:46.133Z,60.68
2022-10-09T09:22:16.858Z,61.20
2022-10-09T09:24:51.930Z,59.82
2022-10-09T09:27:26.101Z,59.32
2022-10-09T09:30:02.332Z,59.07
2022-10-09T09:32:33.015Z,59.89
2022-10-09T09:35:16.141Z,57.52
2022-10-09T09:37:44.135Z,58.77
2022-10-09T09:40:36.594Z,57.28
2022-10-09T09:43:16.930Z,58.57
2022-10-09T09:45:52.090Z,57.36
2022-10-09T09:48:34.765Z,56.39
2022-10-09T09:51:27.403Z,55.50
2022-10-09T09:53:59.410Z,52.32
2022-10-09T09:56:59.682Z,51.37
2022-10-09T09:59:33.466Z,50.25
2022-10-09T10:02:12.786Z,50.54
2022-10-09T10:04:51.438Z,49.51
2022-10-09T10:07:31.654Z,48.14
2022-10-09T10:10:14.659Z,46.06
2022-10-09T10:12:47.874Z,47.08
2022-10-09T10:15:20.257Z,44.62
2022-10-09T10:17:58.336Z,45.69
2022-10-09T10:20:30.167Z,47.00
2022-10-09T10:23:00.445Z,45.13
2022-10-09T10:25:34.245Z,43.74
2022-10-09T10:28:13.459Z,44.28
2022-10-09T10:30:43.751Z,43.23
2022-10-09T10:33:23.446Z,43.15
2022-10-09T10:35:58.202Z,42.57
2022-10-09T10:38:34.833Z,42.16
2022-10-09T10:41:16.341Z,41.17
2022-10-09T10:43:52.543Z,40.21
2022-10-09T10:46:28.186Z,38.64
2022-10-09T10:49:00.341Z,37.91
2022-10-09T10:51:57.743Z,37.76
2022-10-09T10:54:43.033Z,39.00
2022-10-09T10:57:21.771Z,38.26
2022-10-09T11:00:06.262Z,37.36
2022-10-09T11:03:14.623Z,36.72
2022-10-09T11:05:55.286Z,37.46
2022-10-09T11:08:46.619Z,37.39
2022-10-09T11:11:25.385Z,36.36
2022-10-09T11:14:08.424Z,35.01
2022-10-09T11:16:54.918Z,35.62
2022-10-09T11:19:57.271Z,35.43
2022-10-09T11:22:45.158Z,34.19
2022-10-09T11:25:30.908Z,34.33
2022-10-09T11:28:07.377Z,34.75
2022-10-09T11:30:44.012Z,34.18
2022-10-09T11:33:32.741Z,36.03
2022-10-09T11:36:06.872Z,35.03
2022-10-09T11:38:44.051Z,35.00
2022-10-09T11:41:13.900Z,34.53
2022-10-09T11:44:19.311Z,34.27
2022-10-09T11:47:01.543Z,35.94
2022-10-09T11:49:47.915Z,37.28
2022-10-09T11:52:26.328Z,38.94
2022-10-09T11:54:55.624Z,39.70
2022-10-09T11:57:29.452Z,40.44
2022-10-09T12:00:09.698Z,38.19
2022-10-09T12:02:38.474Z,40.65
2022-10-09T12:05:19.126Z,38.78
2022-10-09T12:07:47.124Z,40.39
2022-10-09T12:10:33.678Z,38.29
2022-10-09T12:13:06.616Z,38.33
2022-10-09T12:15:55.071Z,38.46
2022-10-09T12:18:28.857Z,37.25
2022-10-09T12:21:01.660Z,37.01
2022-10-09T12:23:36.025Z,36.12
2022-10-09T12:26:15.925Z,34.25
2022-10-09T12:28:51.832Z,35.80
2022-10-09T12:31:26.248Z,33.91
2022-10-09T12:34:00.853Z,31.90
2022-10-09T12:36:31.459Z,31.12
2022-10-09T12:39:15.414Z,31.90
2022-10-09T12:41:49.229Z,31.13
2022-10-09T12:44:26.474Z,29.81
2022-10-09T12:46:55.496Z,30.34
2022-10-09T12:49:25.791Z,29.57
2022-10-09T12:51:59.505Z,31.10
2022-10-09T12:54:31.184Z,30.68
2022-10-09T12:57:01.997Z,32.63
2022-10-09T12:59:32.914Z,32.32
2022-10-09T13:02:02.756Z,34.13
2022-10-09T13:04:34.013Z,35.38
2022-10-09T13:07:07.947Z,34.67
2022-10-09T13:09:41.490Z,35.53
2022-10-09T13:12:21.064Z,34.92
2022-10-09T13:14:55.446Z,35.23
2022-10-09T13:17:28.943Z,34.77
2022-10-09T13:20:03.207Z,35.96
2022-10-09T13:22:35.983Z,35.50
2022-10-09T13:25:06.450Z,36.27
2022-10-09T13:27:40.081Z,35.76
2022-10-09T13:30:12.226Z,35.44
2022-10-09T13:32:40.070Z,34.57
2022-10-09T13:35:09.388Z,35.37
2022-10-09T13:37:37.800Z,33.95
2022-10-09T13:40:11.801Z,33.48
2022-10-09T13:42:43.451Z,32.46
2022-10-09T13:45:11.853Z,32.28
2022-10-09T13:47:39.816Z,31.26
2022-10-09T13:50:09.608Z,30.62
2022-10-09T13:55:07.210Z,31.01
2022-10-09T13:57:35.378Z,30.98
2022-10-09T14:00:06.938Z,30.43
2022-10-09T14:02:39.964Z,29.96
2022-10-09T14:05:09.007Z,28.44
2022-10-09T14:07:37.213Z,29.21
2022-10-09T14:10:06.449Z,30.24
2022-10-09T14:12:34.298Z,31.27
2022-10-09T14:15:02.116Z,31.58
2022-10-09T14:17:31.404Z,31.66
2022-10-09T14:19:59.221Z,31.85
2022-10-09T14:22:28.220Z,32.22
2022-10-09T14:24:56.109Z,32.53
2022-10-09T14:27:24.315Z,33.61
2022-10-09T14:29:54.149Z,32.82
2022-10-09T14:32:24.680Z,33.02
2022-10-09T14:34:53.862Z,33.34
2022-10-09T14:37:40.369Z,32.66
2022-10-09T14:40:11.460Z,34.67
2022-10-09T14:42:39.802Z,35.82
2022-10-09T14:45:10.075Z,36.72
2022-10-09T14:47:37.949Z,37.18
2022-10-09T14:50:08.781Z,36.31
2022-10-09T14:52:37.121Z,37.13
2022-10-09T14:55:06.131Z,36.22
2022-10-09T14:57:35.542Z,36.73
2022-10-09T15:00:05.653Z,37.13
2022-10-09T15:02:34.146Z,35.99
2022-10-09T15:05:03.690Z,35.71
2022-10-09T15:07:33.803Z,36.25
2022-10-09T15:10:01.761Z,36.24
2022-10-09T15:12:29.611Z,36.15
2022-10-09T15:14:57.372Z,36.46
2022-10-09T15:17:25.707Z,36.52
2022-10-09T15:19:54.024Z,36.97
2022-10-09T15:22:22.011Z,36.44
2022-10-09T15:24:51.644Z,36.22
2022-10-09T15:27:19.518Z,36.69
2022-10-09T15:29:47.337Z,36.05
2022-10-09T15:32:15.157Z,36.80
2022-10-09T15:34:43.070Z,36.30
2022-10-09T15:37:11.308Z,36.17
2022-10-09T15:39:39.309Z,36.76
2022-10-09T15:42:08.498Z,37.07
2022-10-09T15:44:36.394Z,38.06
2022-10-09T15:47:05.428Z,37.75
2022-10-09T15:49:33.460Z,37.75
2022-10-09T15:52:02.740Z,39.13
2022-10-09T15:54:30.885Z,40.14
2022-10-09T15:56:58.692Z,40.63
2022-10-09T15:59:30.004Z,41.06
2022-10-09T16:01:57.925Z,41.82
2022-10-09T16:04:27.949Z,42.44
2022-10-09T16:06:58.115Z,42.46
2022-10-09T16:09:26.429Z,43.38
2022-10-09T16:11:54.221Z,42.99
2022-10-09T16:14:22.066Z,43.67
2022-10-09T16:16:51.563Z,43.81
2022-10-09T16:19:19.292Z,43.71
2022-10-09T16:21:48.781Z,44.27
2022-10-09T16:24:17.396Z,44.32
2022-10-09T16:26:45.241Z,44.29
2022-10-09T16:29:14.724Z,44.87
2022-10-09T16:31:42.606Z,44.82
2022-10-09T16:34:11.862Z,45.45
2022-10-09T16:36:40.035Z,45.83
2022-10-09T16:39:08.185Z,46.29
2022-10-09T16:41:41.693Z,46.83
2022-10-09T16:44:14.347Z,47.73
2022-10-09T16:46:42.256Z,47.83
2022-10-09T16:49:21.290Z,48.30
2022-10-09T16:51:52.307Z,48.09
2022-10-09T16:54:20.109Z,49.07
2022-10-09T16:56:48.638Z,49.52
2022-10-09T16:59:19.403Z,49.42
2022-10-09T17:01:49.425Z,49.69
2022-10-09T17:04:21.468Z,50.09
2022-10-09T17:06:49.453Z,50.33
2022-10-09T17:09:17.335Z,50.74
2022-10-09T17:11:45.868Z,51.16
2022-10-09T17:14:14.068Z,51.11
2022-10-09T17:16:43.260Z,51.34
2022-10-09T17:19:12.247Z,51.22
2022-10-09T17:21:41.830Z,51.07
2022-10-09T17:24:14.890Z,51.07
2022-10-09T17:26:42.978Z,51.07
2022-10-09T17:29:14.095Z,51.46
2022-10-09T17:31:42.183Z,51.31
2022-10-09T17:34:12.725Z,51.17
2022-10-09T17:36:44.450Z,51.27
2022-10-09T17:39:16.141Z,50.76
2022-10-09T17:41:46.298Z,50.73
2022-10-09T17:44:18.017Z,50.91
2022-10-09T17:46:46.185Z,51.16
2022-10-09T17:49:14.101Z,50.74
2022-10-09T17:51:44.519Z,50.58
2022-10-09T17:54:15.317Z,50.50
2022-10-09T17:56:43.943Z,50.40
2022-10-09T17:59:12.666Z,50.67
2022-10-09T18:01:40.664Z,50.27
2022-10-09T18:04:14.221Z,50.10
2022-10-09T18:06:44.022Z,50.26
2022-10-09T18:09:12.646Z,49.96
2022-10-09T18:11:40.671Z,49.92
2022-10-09T18:14:09.857Z,49.53
2022-10-09T18:16:39.275Z,49.43
2022-10-09T18:19:12.114Z,50.02
2022-10-09T18:21:45.501Z,49.93
2022-10-09T18:24:14.426Z,50.23
2022-10-09T18:26:43.200Z,49.85
2022-10-09T18:29:11.224Z,50.48
2022-10-09T18:31:39.585Z,50.27
2022-10-09T18:34:07.899Z,50.70
2022-10-09T18:36:37.257Z,51.17
2022-10-09T18:39:09.611Z,51.00
2022-10-09T18:41:38.072Z,51.17
2022-10-09T18:44:17.395Z,51.22
2022-10-09T18:46:52.842Z,51.54
2022-10-09T18:49:27.013Z,51.85
2022-10-09T18:51:57.242Z,51.94
2022-10-09T18:54:28.363Z,52.37
2022-10-09T18:56:58.111Z,52.33
2022-10-09T18:59:26.144Z,52.15
2022-10-09T19:01:55.121Z,52.34
2022-10-09T19:04:23.091Z,52.44
2022-10-09T19:06:52.346Z,52.96
2022-10-09T19:09:20.704Z,53.37
2022-10-09T19:11:52.476Z,53.30
2022-10-09T19:14:20.776Z,53.77
2022-10-09T19:16:48.820Z,54.11
2022-10-09T19:19:16.940Z,54.61
2022-10-09T19:21:46.327Z,54.48
2022-10-09T19:24:14.759Z,54.42
2022-10-09T19:26:42.730Z,54.81
2022-10-09T19:29:12.245Z,54.72
2022-10-09T19:31:40.741Z,55.10
2022-10-09T19:34:08.723Z,54.99
2022-10-09T19:36:38.059Z,55.40
2022-10-09T19:39:08.779Z,55.56
2022-10-09T19:41:39.391Z,55.60
2022-10-09T19:44:07.233Z,55.47
2022-10-09T19:46:38.802Z,55.77
2022-10-09T19:49:08.816Z,55.75
2022-10-09T19:51:38.246Z,56.29
2022-10-09T19:54:09.169Z,56.21
2022-10-09T19:56:40.505Z,56.10
2022-10-09T19:59:10.267Z,55.80
2022-10-09T20:01:40.581Z,56.41
2022-10-09T20:04:11.150Z,56.36
2022-10-09T20:06:41.182Z,56.31
2022-10-09T20:09:11.535Z,56.34
2022-10-09T20:11:39.998Z,56.46
2022-10-09T20:14:09.663Z,56.31
2022-10-09T20:16:38.878Z,56.31
2022-10-09T20:19:07.284Z,56.55
2022-10-09T20:21:35.603Z,56.74
2022-10-09T20:24:03.969Z,57.23
2022-10-09T20:26:33.155Z,56.84
2022-10-09T20:29:01.130Z,57.77
2022-10-09T20:31:30.174Z,57.44
2022-10-09T20:33:59.475Z,57.59
2022-10-09T20:36:31.229Z,57.68
2022-10-09T20:39:02.309Z,57.77
2022-10-09T20:41:32.620Z,57.73
2022-10-09T20:44:02.800Z,58.49
2022-10-09T20:46:33.352Z,58.48
2022-10-09T20:49:08.094Z,59.06
2022-10-09T20:51:36.623Z,58.84
2022-10-09T20:54:07.275Z,59.32
2022-10-09T20:56:36.735Z,59.67
2022-10-09T20:59:04.672Z,59.64
2022-10-09T21:01:32.697Z,60.30
2022-10-09T21:04:01.710Z,60.19
2022-10-09T21:06:31.996Z,60.56
2022-10-09T21:08:59.966Z,61.14
2022-10-09T21:11:27.821Z,61.75
2022-10-09T21:13:57.784Z,61.66
2022-10-09T21:16:25.933Z,61.78
2022-10-09T21:18:56.818Z,61.73
2022-10-09T21:21:26.445Z,61.70
2022-10-09T21:23:58.564Z,61.66
2022-10-09T21:26:28.887Z,62.01
2022-10-09T21:28:59.899Z,62.15
2022-10-09T21:31:30.584Z,62.47
2022-10-09T21:34:00.831Z,62.71
2022-10-09T21:36:47.119Z,62.74
2022-10-09T21:39:28.331Z,62.66
2022-10-09T21:41:56.339Z,63.29
2022-10-09T21:44:24.476Z,63.20
2022-10-09T21:46:52.395Z,63.12
2022-10-09T21:49:25.772Z,63.07
2022-10-09T21:51:54.782Z,63.49
2022-10-09T21:54:22.770Z,63.51
2022-10-09T21:56:52.199Z,63.26
2022-10-09T21:59:21.516Z,63.15
2022-10-09T22:01:49.492Z,63.05
2022-10-09T22:04:17.329Z,63.04
2022-10-09T22:06:45.370Z,62.87
2022-10-09T22:09:14.946Z,62.78
2022-10-09T22:11:44.623Z,63.13
2022-10-09T22:14:14.764Z,63.21
2022-10-09T22:16:43.813Z,63.11
2022-10-09T22:19:11.906Z,63.35
2022-10-09T22:21:40.774Z,63.35
2022-10-09T22:24:09.726Z,62.77
2022-10-09T22:26:37.880Z,62.66
2022-10-09T22:29:06.508Z,62.80
2022-10-09T22:31:35.819Z,63.17
2022-10-09T22:34:04.266Z,63.37
2022-10-09T22:36:33.855Z,63.04
2022-10-09T22:39:06.509Z,63.50
2022-10-09T22:41:36.048Z,63.35
2022-10-09T22:44:07.798Z,63.45
2022-10-09T22:46:40.768Z,63.95
2022-10-09T22:49:14.496Z,64.13
2022-10-09T22:51:43.569Z,64.42
2022-10-09T22:54:12.642Z,65.03
2022-10-09T22:56:43.281Z,64.88
2022-10-09T22:59:15.795Z,65.22
2022-10-09T23:01:48.488Z,65.23
2022-10-09T23:04:18.382Z,65.22
2022-10-09T23:06:50.404Z,65.16
2022-10-09T23:09:19.347Z,65.56
2022-10-09T23:11:47.742Z,65.60
2022-10-09T23:14:16.392Z,65.95
2022-10-09T23:16:48.905Z,66.06
2022-10-09T23:19:17.553Z,65.89
2022-10-09T23:21:46.544Z,66.84
2022-10-09T23:24:17.923Z,66.25
2022-10-09T23:26:50.022Z,66.31
2022-10-09T23:29:20.811Z,66.44
2022-10-09T23:31:53.229Z,66.79
2022-10-09T23:34:21.258Z,66.69
2022-10-09T23:36:49.146Z,67.12
2022-10-09T23:39:17.597Z,67.03
2022-10-09T23:41:45.864Z,67.08
2022-10-09T23:44:13.776Z,67.05
2022-10-09T23:46:41.910Z,67.07
2022-10-09T23:49:11.877Z,67.08
2022-10-09T23:51:40.337Z,67.06
2022-10-09T23:54:08.153Z,66.92
2022-10-09T23:56:37.216Z,66.53
2022-10-09T23:59:06.624Z,67.04
